createdAt,value
2022-08-17T00:01:17.695Z,45
2022-08-17T00:08:54.711Z,41
2022-08-17T00:17:32.551Z,47
2022-08-17T00:27:22.236Z,48
2022-08-17T00:35:28.915Z,46
2022-08-17T00:43:10.264Z,56
2022-08-17T00:50:58.418Z,51
2022-08-17T00:58:39.816Z,48
2022-08-17T01:06:39.434Z,47
2022-08-17T01:15:11.957Z,47
2022-08-17T01:22:46.755Z,47
2022-08-17T01:31:35.357Z,49
2022-08-17T01:39:36.123Z,52
2022-08-17T01:47:12.065Z,43
2022-08-17T01:54:50.964Z,55
2022-08-17T02:03:06.063Z,53
2022-08-17T02:11:59.036Z,52
2022-08-17T02:19:34.830Z,46
2022-08-17T02:27:17.927Z,56
2022-08-17T02:35:59.239Z,55
2022-08-17T02:44:00.609Z,60
2022-08-17T02:51:54.963Z,57
2022-08-17T03:00:31.224Z,61
2022-08-17T03:08:06.210Z,63
2022-08-17T03:15:37.603Z,61
2022-08-17T03:24:01.895Z,65
2022-08-17T03:31:41.000Z,59
2022-08-17T03:39:15.667Z,62
2022-08-17T03:47:36.513Z,67
2022-08-17T03:55:15.876Z,74
2022-08-17T04:02:48.515Z,68
2022-08-17T04:10:29.306Z,70
2022-08-17T04:18:23.953Z,67
2022-08-17T04:26:00.230Z,71
2022-08-17T04:34:41.636Z,75
2022-08-17T04:42:07.519Z,68
2022-08-17T04:50:08.185Z,72
2022-08-17T04:58:00.111Z,75
2022-08-17T05:06:10.031Z,82
2022-08-17T05:13:46.592Z,72
2022-08-17T05:21:11.449Z,77
2022-08-17T05:29:40.744Z,78
2022-08-17T05:37:22.856Z,78
2022-08-17T05:44:48.827Z,78
2022-08-17T05:53:01.247Z,81
2022-08-17T06:00:37.541Z,77
2022-08-17T06:08:11.083Z,75
2022-08-17T06:15:48.421Z,69
2022-08-17T06:23:32.659Z,72
2022-08-17T06:31:33.538Z,70
2022-08-17T06:39:13.974Z,68
2022-08-17T06:47:28.294Z,68
2022-08-17T06:55:17.924Z,65
2022-08-17T07:03:28.428Z,63
2022-08-17T07:11:17.195Z,62
2022-08-17T07:19:21.530Z,57
2022-08-17T07:27:07.552Z,63
2022-08-17T07:34:50.193Z,64
2022-08-17T07:42:36.209Z,59
2022-08-17T07:50:23.953Z,52
2022-08-17T07:58:57.274Z,56
2022-08-17T08:07:44.486Z,57
2022-08-17T08:15:26.143Z,47
2022-08-17T08:24:19.688Z,40
2022-08-17T08:31:55.963Z,44
2022-08-17T08:41:16.197Z,42
2022-08-17T08:49:59.365Z,38
2022-08-17T08:58:30.833Z,38
2022-08-17T09:07:13.734Z,34
2022-08-17T09:14:57.884Z,38
2022-08-17T09:23:09.826Z,27
2022-08-17T09:30:37.257Z,31
2022-08-17T09:38:22.059Z,25
2022-08-17T09:45:58.700Z,22
2022-08-17T09:53:35.186Z,20
2022-08-17T10:02:09.688Z,18
2022-08-17T10:09:54.681Z,17
2022-08-17T10:18:14.620Z,19
2022-08-17T10:27:32.182Z,16
2022-08-17T10:35:26.970Z,15
2022-08-17T10:47:52.824Z,20
2022-08-17T11:06:40.397Z,14
2022-08-17T11:14:22.630Z,17
2022-08-17T11:22:12.900Z,16
2022-08-17T11:29:44.483Z,18
2022-08-17T11:37:28.984Z,12
2022-08-17T11:45:19.410Z,16
2022-08-17T11:53:37.304Z,14
2022-08-17T12:01:56.860Z,14
2022-08-17T12:09:30.004Z,18
2022-08-17T12:17:39.882Z,13
2022-08-17T12:25:17.039Z,14
2022-08-17T12:33:40.779Z,17
2022-08-17T12:41:23.054Z,15
2022-08-17T12:48:59.475Z,17
2022-08-17T12:57:13.100Z,16
2022-08-17T13:04:51.334Z,20
2022-08-17T13:12:14.982Z,17
2022-08-17T13:20:13.623Z,14
2022-08-17T13:28:02.268Z,17
2022-08-17T13:37:04.365Z,15
2022-08-17T13:44:46.151Z,14
2022-08-17T13:52:36.377Z,14
2022-08-17T14:01:04.778Z,14
2022-08-17T14:09:17.514Z,12
2022-08-17T14:17:04.503Z,16
2022-08-17T14:24:44.792Z,15
2022-08-17T14:32:46.722Z,12
2022-08-17T14:40:18.635Z,15
2022-08-17T14:48:01.119Z,16
2022-08-17T14:55:43.127Z,15
2022-08-17T15:03:59.047Z,12
2022-08-17T15:11:38.813Z,10
2022-08-17T15:19:21.810Z,11
2022-08-17T15:26:59.992Z,13
2022-08-17T15:34:56.548Z,12
2022-08-17T15:42:32.932Z,12
2022-08-17T15:50:07.112Z,13
2022-08-17T15:57:56.663Z,12
2022-08-17T16:08:02.130Z,16
2022-08-17T16:15:51.243Z,16
2022-08-17T16:24:02.844Z,20
2022-08-17T16:31:49.435Z,19
2022-08-17T16:39:33.219Z,27
2022-08-17T16:47:09.247Z,22
2022-08-17T16:55:09.865Z,23
2022-08-17T17:03:00.129Z,22
2022-08-17T17:10:41.311Z,19
2022-08-17T17:18:55.696Z,8
2022-08-17T17:26:34.590Z,7
2022-08-17T17:34:34.848Z,6
2022-08-17T17:42:11.217Z,6
2022-08-17T17:50:36.395Z,6
2022-08-17T17:59:04.319Z,6
2022-08-17T18:06:43.439Z,9
2022-08-17T18:14:34.046Z,8
2022-08-17T18:22:20.462Z,9
2022-08-17T18:29:59.074Z,8
2022-08-17T18:37:56.007Z,11
2022-08-17T18:45:32.368Z,10
2022-08-17T18:53:26.564Z,14
2022-08-17T19:01:00.921Z,11
2022-08-17T19:09:12.544Z,15
2022-08-17T19:16:49.543Z,12
2022-08-17T19:24:28.884Z,16
2022-08-17T19:33:01.191Z,13
2022-08-17T19:40:53.440Z,12
2022-08-17T19:48:59.357Z,13
2022-08-17T19:56:43.249Z,12
2022-08-17T20:04:27.111Z,14
2022-08-17T20:12:47.630Z,12
2022-08-17T20:20:54.896Z,13
2022-08-17T20:28:52.014Z,14
2022-08-17T20:36:36.301Z,14
2022-08-17T20:44:12.476Z,18
2022-08-17T20:52:37.010Z,17
2022-08-17T21:00:03.513Z,19
2022-08-17T21:07:55.342Z,18
2022-08-17T21:16:05.041Z,17
2022-08-17T21:23:41.945Z,15
2022-08-17T21:31:55.199Z,20
2022-08-17T21:40:06.017Z,21
2022-08-17T21:47:35.218Z,17
2022-08-17T21:55:21.503Z,22
2022-08-17T22:03:14.583Z,20
2022-08-17T22:11:04.572Z,18
2022-08-17T22:19:03.397Z,21
2022-08-17T22:26:37.289Z,19
2022-08-17T22:34:05.604Z,22
2022-08-17T22:41:45.380Z,25
2022-08-17T22:49:18.731Z,21
2022-08-17T22:57:06.810Z,23
2022-08-17T23:04:50.675Z,23
2022-08-17T23:17:07.184Z,23
2022-08-17T23:24:55.328Z,21
2022-08-17T23:32:21.127Z,26
2022-08-17T23:40:02.890Z,21
2022-08-17T23:47:34.174Z,26
2022-08-17T23:55:15.747Z,22
